Time;durP1;ratioP1;P1;durP2;ratioP2;P2;SDS_P1;SDS_P2;PMS_P1;PMS_P2;Temp;Humidity;BMP_temperature;BMP_pressure;BME280_temperature;BME280_humidity;BME280_pressure;Samples;Min_cycle;Max_cycle;Signal;HPM_P1;HPM_P2
2022/07/30 00:00:16;;;;;;;8.90;4.65;;;;;;;21.01;65.58;95042.97;5015591;28;20518;-75
2022/07/30 00:02:51;;;;;;;7.32;4.63;;;;;;;20.93;65.88;95051.59;5047731;28;20036;-74
2022/07/30 00:05:18;;;;;;;5.75;5.07;;;;;;;20.93;65.94;95048.97;5061603;28;20033;-75
2022/07/30 00:07:46;;;;;;;7.85;5.55;;;;;;;20.86;66.13;95046.69;5054306;28;20071;-76
2022/07/30 00:10:13;;;;;;;6.65;5.75;;;;;;;20.72;66.14;95027.31;5041244;28;20041;-76
2022/07/30 00:12:40;;;;;;;9.13;5.20;;;;;;;20.74;66.64;95043.69;5034230;28;20044;-76
2022/07/30 00:15:08;;;;;;;8.05;5.88;;;;;;;20.63;67.64;95043.06;5030950;28;20045;-75
2022/07/30 00:17:35;;;;;;;9.45;5.25;;;;;;;20.64;67.99;95044.66;5028701;28;20041;-76
2022/07/30 00:20:03;;;;;;;10.00;5.32;;;;;;;20.57;68.52;95042.34;5018941;28;20049;-76
2022/07/30 00:22:30;;;;;;;11.60;5.47;;;;;;;20.40;68.68;95019.06;5019828;28;20103;-76
2022/07/30 00:24:57;;;;;;;5.88;4.90;;;;;;;20.41;68.80;95025.91;5022116;28;20068;-76
2022/07/30 00:27:25;;;;;;;6.18;4.97;;;;;;;20.39;69.57;95028.06;5026613;28;20068;-76
2022/07/30 00:29:52;;;;;;;8.05;5.30;;;;;;;20.18;69.96;95001.13;5036497;28;20151;-76
2022/07/30 00:32:20;;;;;;;8.75;5.40;;;;;;;20.32;69.46;95032.94;5027109;28;20072;-75
2022/07/30 00:34:47;;;;;;;9.70;4.97;;;;;;;20.30;69.93;95035.09;5017406;28;20041;-75
2022/07/30 00:37:14;;;;;;;6.68;4.88;;;;;;;20.28;70.31;95037.25;5040675;28;20498;-76
2022/07/30 00:39:41;;;;;;;9.57;5.07;;;;;;;20.31;69.71;95030.56;5016026;28;20052;-75
2022/07/30 00:42:08;;;;;;;6.55;4.88;;;;;;;20.31;70.09;95028.75;5024198;28;20045;-76
2022/07/30 00:44:35;;;;;;;8.02;5.13;;;;;;;20.27;69.60;95030.38;5024175;28;20400;-76
2022/07/30 00:47:07;;;;;;;6.22;5.07;;;;;;;20.21;70.33;95026.22;5032499;28;20040;-75
2022/07/30 00:49:33;;;;;;;9.52;5.38;;;;;;;20.11;70.84;95015.78;5023698;28;20053;-76
2022/07/30 00:52:00;;;;;;;6.88;5.28;;;;;;;20.18;70.77;95024.16;5023227;28;20562;-76
2022/07/30 00:54:28;;;;;;;7.20;5.32;;;;;;;20.12;70.97;95023.44;5022198;28;20132;-76
2022/07/30 00:56:56;;;;;;;9.60;5.40;;;;;;;20.09;71.28;95017.94;5028935;28;20072;-76
2022/07/30 00:59:27;;;;;;;7.63;5.68;;;;;;;20.00;72.40;95009.88;5006032;28;20049;-76
2022/07/30 01:01:54;;;;;;;12.43;5.30;;;;;;;20.02;72.58;95010.34;5036120;28;20052;-77
2022/07/30 01:04:21;;;;;;;7.65;6.13;;;;;;;20.03;72.66;95018.00;5045121;28;20041;-76
2022/07/30 01:06:48;;;;;;;9.35;6.15;;;;;;;20.02;72.32;95013.81;5019756;28;20354;-76
2022/07/30 01:09:15;;;;;;;7.63;5.60;;;;;;;20.01;72.63;95028.09;5035056;28;20520;-76
2022/07/30 01:11:43;;;;;;;9.80;6.38;;;;;;;19.97;72.21;95011.22;5031201;28;20037;-76
2022/07/30 01:14:10;;;;;;;9.48;6.65;;;;;;;19.93;72.56;95010.22;5022048;28;20034;-76
2022/07/30 01:16:40;;;;;;;7.22;5.13;;;;;;;19.95;73.29;95008.09;5037989;28;20080;-76
2022/07/30 01:22:13;;;;;;;13.25;6.50;;;;;;;19.81;74.00;95012.50;5043390;28;20568;-76
2022/07/30 01:24:54;;;;;;;10.65;5.55;;;;;;;19.74;73.64;95001.50;5020498;28;20131;-76
2022/07/30 01:27:23;;;;;;;8.95;5.95;;;;;;;19.67;74.28;95002.59;5046873;28;20577;-76
2022/07/30 01:29:53;;;;;;;10.23;4.75;;;;;;;19.70;74.61;95006.53;5029820;28;20122;-76
2022/07/30 01:32:24;;;;;;;5.30;4.47;;;;;;;19.62;74.95;95005.28;5041368;28;20052;-76
2022/07/30 01:34:54;;;;;;;7.65;5.30;;;;;;;19.51;74.86;94998.56;5040955;28;20475;-77
2022/07/30 01:37:22;;;;;;;9.00;4.95;;;;;;;19.48;75.03;95007.06;5038172;28;20198;-78
2022/07/30 01:39:51;;;;;;;6.90;5.53;;;;;;;19.56;75.02;95017.00;5041190;28;20052;-76
2022/07/30 01:42:20;;;;;;;5.97;5.25;;;;;;;19.48;75.86;95010.50;5045442;28;20060;-76
2022/07/30 01:44:48;;;;;;;9.98;5.45;;;;;;;19.47;75.50;95008.91;5017462;28;20580;-76
2022/07/30 01:47:19;;;;;;;6.68;5.35;;;;;;;19.47;75.58;95008.16;5038062;28;20045;-76
2022/07/30 01:49:48;;;;;;;6.03;5.35;;;;;;;19.44;75.63;94998.13;5022782;28;20060;-76
2022/07/30 01:52:17;;;;;;;7.95;5.18;;;;;;;19.46;76.07;95017.13;5029324;28;20049;-76
2022/07/30 01:54:47;;;;;;;5.72;5.10;;;;;;;19.45;75.88;95016.34;5042461;28;20049;-76
2022/07/30 01:57:18;;;;;;;9.52;5.38;;;;;;;19.43;75.93;95012.44;5028180;28;20445;-76
2022/07/30 01:59:49;;;;;;;10.00;5.35;;;;;;;19.42;76.04;95005.56;5035497;28;20409;-76
2022/07/30 02:02:17;;;;;;;6.82;5.57;;;;;;;19.26;76.16;94992.53;5033429;28;20037;-76
2022/07/30 02:04:45;;;;;;;8.70;5.47;;;;;;;19.34;75.90;95000.88;5026671;28;20109;-77
2022/07/30 02:07:22;;;;;;;6.32;4.60;;;;;;;19.25;76.08;94985.69;5031399;28;20585;-76
2022/07/30 02:10:09;;;;;;;5.97;4.93;;;;;;;19.29;77.49;94997.25;5030124;28;20044;-76
2022/07/30 02:12:53;;;;;;;7.50;5.47;;;;;;;19.17;77.72;94983.66;5028459;28;20131;-76
2022/07/30 02:15:30;;;;;;;8.70;6.57;;;;;;;19.27;77.51;94994.09;5015431;28;20056;-75
2022/07/30 02:18:16;;;;;;;7.00;5.03;;;;;;;18.96;78.51;94961.19;5025341;28;20045;-76
2022/07/30 02:21:01;;;;;;;6.05;5.25;;;;;;;19.11;77.84;94984.78;5026939;28;20048;-76
2022/07/30 02:23:45;;;;;;;5.95;5.15;;;;;;;19.10;78.56;94977.91;5033613;28;20049;-76
2022/07/30 02:26:17;;;;;;;8.30;5.88;;;;;;;19.16;78.27;94992.66;5052802;28;20045;-76
2022/07/30 02:28:48;;;;;;;8.65;5.57;;;;;;;19.11;78.49;94979.50;5030958;28;20137;-75
2022/07/30 02:31:19;;;;;;;12.02;5.03;;;;;;;19.16;78.34;94982.09;5034768;28;20053;-76
2022/07/30 02:33:49;;;;;;;7.50;5.13;;;;;;;19.13;78.30;94972.09;5028922;28;20048;-76
2022/07/30 02:36:19;;;;;;;12.25;5.70;;;;;;;19.08;78.20;94969.50;5047869;28;20063;-76
2022/07/30 02:38:49;;;;;;;8.20;6.05;;;;;;;19.17;78.20;94978.38;5033568;28;20170;-76
2022/07/30 02:41:21;;;;;;;10.90;6.53;;;;;;;19.17;78.13;94977.59;5020779;28;20553;-76
2022/07/30 02:43:51;;;;;;;10.18;5.30;;;;;;;19.20;77.98;94982.31;5022239;28;20470;-76
2022/07/30 02:46:21;;;;;;;6.22;5.07;;;;;;;19.22;78.29;94985.47;5027066;28;20064;-76
2022/07/30 02:49:21;;;;;;;7.43;5.32;;;;;;;19.21;78.43;94987.31;5028387;28;20056;-75
2022/07/30 02:51:50;;;;;;;8.93;5.65;;;;;;;19.12;78.62;94972.34;5026815;28;20133;-76
2022/07/30 02:54:18;;;;;;;12.27;5.63;;;;;;;19.00;78.27;94956.94;5033228;28;20045;-76
2022/07/30 02:56:48;;;;;;;7.32;5.50;;;;;;;19.06;78.50;94966.34;5036643;28;20040;-76
2022/07/30 02:59:18;;;;;;;8.82;5.03;;;;;;;19.06;78.82;94972.41;5034448;28;20073;-76
2022/07/30 03:01:47;;;;;;;7.20;5.80;;;;;;;18.98;79.23;94959.03;5029339;28;20049;-76
2022/07/30 03:04:19;;;;;;;9.77;6.30;;;;;;;18.95;79.30;94959.63;5012351;28;20032;-76
2022/07/30 03:06:48;;;;;;;6.82;5.22;;;;;;;19.03;80.14;94977.47;5041462;28;20045;-76
2022/07/30 03:09:16;;;;;;;9.10;6.13;;;;;;;19.00;79.93;94967.50;5037136;28;20068;-76
2022/07/30 03:11:44;;;;;;;7.15;5.53;;;;;;;19.01;79.43;94969.81;5048640;28;20057;-76
2022/07/30 03:14:11;;;;;;;9.40;5.65;;;;;;;18.99;79.16;94960.63;5030807;28;20407;-76
2022/07/30 03:16:42;;;;;;;11.20;5.55;;;;;;;19.04;79.79;94968.50;5009689;28;20486;-76
2022/07/30 03:19:10;;;;;;;7.75;5.10;;;;;;;19.02;80.48;94965.34;5024660;28;20564;-76
2022/07/30 03:21:40;;;;;;;8.40;5.47;;;;;;;19.06;80.28;94966.34;5027868;28;20076;-76
2022/07/30 03:24:09;;;;;;;7.30;6.60;;;;;;;19.03;80.20;94973.00;5038248;28;20041;-76
2022/07/30 03:26:38;;;;;;;7.70;6.43;;;;;;;18.95;80.59;94964.91;5050651;28;20040;-76
2022/07/30 03:29:07;;;;;;;7.50;4.85;;;;;;;18.84;80.81;94954.44;5026729;28;20049;-76
2022/07/30 03:31:38;;;;;;;7.93;5.95;;;;;;;18.91;81.27;94983.91;5034195;28;20055;-76
2022/07/30 03:34:07;;;;;;;6.30;5.60;;;;;;;18.88;81.33;94973.91;5036540;28;20048;-76
2022/07/30 03:36:35;;;;;;;6.90;5.53;;;;;;;18.85;81.90;94966.59;5024449;28;20040;-76
2022/07/30 03:39:04;;;;;;;7.97;6.07;;;;;;;18.90;81.71;94982.34;5023995;28;20122;-76
2022/07/30 03:41:31;;;;;;;8.52;5.60;;;;;;;18.94;81.32;94979.16;5048470;28;20071;-76
2022/07/30 03:44:00;;;;;;;8.98;5.70;;;;;;;18.95;81.09;94986.78;5014551;28;20041;-76
2022/07/30 03:46:28;;;;;;;6.75;5.93;;;;;;;18.99;81.19;94981.75;5022740;28;20048;-76
2022/07/30 03:48:56;;;;;;;7.32;6.40;;;;;;;19.04;81.14;94986.97;5026540;28;20071;-75
2022/07/30 03:51:24;;;;;;;7.38;5.28;;;;;;;19.03;81.59;94993.31;5018805;28;20053;-76
2022/07/30 03:53:59;;;;;;;11.35;6.28;;;;;;;19.10;81.10;94985.84;5029356;28;20041;-76
2022/07/30 03:56:30;;;;;;;6.10;5.45;;;;;;;19.15;80.84;94985.00;5027572;28;20489;-76
2022/07/30 03:59:06;;;;;;;8.63;6.10;;;;;;;19.13;81.04;94980.00;5014971;28;20095;-75
2022/07/30 04:01:37;;;;;;;7.70;5.88;;;;;;;19.16;81.04;94987.38;5013624;28;20818;-76
2022/07/30 04:04:10;;;;;;;9.23;6.10;;;;;;;19.15;80.45;94969.94;5012794;28;20044;-76
2022/07/30 04:06:39;;;;;;;7.40;5.88;;;;;;;19.34;80.55;94992.97;5016899;28;20053;-75
2022/07/30 04:09:10;;;;;;;7.57;5.93;;;;;;;19.33;80.40;94991.41;5024219;28;20048;-77
2022/07/30 04:11:39;;;;;;;8.82;6.20;;;;;;;19.36;80.79;94983.72;5014707;28;20411;-77
2022/07/30 04:14:09;;;;;;;18.52;5.72;;;;;;;19.43;80.64;94991.28;5030794;28;20033;-78
2022/07/30 04:17:02;;;;;;;10.27;6.32;;;;;;;19.49;80.10;94995.44;5039008;28;20787;-78
2022/07/30 04:19:35;;;;;;;8.98;6.80;;;;;;;19.53;79.97;94990.38;5022990;28;20543;-78
2022/07/30 04:22:05;;;;;;;7.55;5.55;;;;;;;19.55;79.72;94988.22;5007362;28;20455;-71
2022/07/30 04:24:34;;;;;;;6.72;5.75;;;;;;;19.75;79.55;95003.06;5000373;28;20099;-72
2022/07/30 04:27:03;;;;;;;6.15;5.53;;;;;;;19.83;79.18;94994.50;4995245;28;20666;-71
2022/07/30 04:29:31;;;;;;;7.22;5.03;;;;;;;19.95;79.13;94997.53;5026707;28;20515;-66
2022/07/30 04:31:58;;;;;;;6.60;5.15;;;;;;;20.09;77.90;94996.78;5007196;28;20058;-66
2022/07/30 04:34:48;;;;;;;9.38;5.53;;;;;;;20.22;77.78;95006.63;5018520;28;20045;-66
2022/07/30 04:37:22;;;;;;;6.82;5.15;;;;;;;20.32;76.95;95006.50;5013007;28;20132;-66
2022/07/30 04:39:53;;;;;;;10.18;6.85;;;;;;;20.44;76.94;94993.59;5032037;28;20057;-66
2022/07/30 04:42:20;;;;;;;6.75;5.00;;;;;;;20.62;75.69;95004.47;5022901;28;20132;-66
2022/07/30 04:44:57;;;;;;;8.85;5.35;;;;;;;20.76;74.71;95000.00;5017673;28;20526;-67
2022/07/30 04:47:27;;;;;;;6.95;5.90;;;;;;;20.85;74.57;95000.13;5022787;28;20080;-66
2022/07/30 04:50:16;;;;;;;6.40;5.57;;;;;;;21.04;74.03;95000.03;5017736;28;20081;-66
2022/07/30 04:52:45;;;;;;;12.80;5.50;;;;;;;21.19;73.00;95001.59;5010613;28;20156;-67
2022/07/30 04:55:19;;;;;;;7.63;5.53;;;;;;;21.22;72.95;94990.44;5031976;28;20041;-67
2022/07/30 04:57:49;;;;;;;8.23;5.65;;;;;;;21.36;72.39;94987.78;5019740;28;20091;-67
2022/07/30 05:00:17;;;;;;;6.72;5.00;;;;;;;21.46;71.57;94987.59;5019900;28;20053;-66
2022/07/30 05:02:46;;;;;;;8.23;5.63;;;;;;;21.70;70.81;94999.88;5018897;28;20041;-67
2022/07/30 05:05:14;;;;;;;7.13;4.50;;;;;;;21.88;71.71;95001.59;5032393;28;20056;-67
2022/07/30 05:07:44;;;;;;;5.82;5.03;;;;;;;22.05;69.65;95005.47;5016887;28;20057;-67
2022/07/30 05:10:13;;;;;;;7.57;5.43;;;;;;;22.12;69.14;94987.28;5036531;28;20080;-67
2022/07/30 05:12:41;;;;;;;5.68;4.70;;;;;;;22.23;68.25;94996.56;5036787;28;20103;-67
2022/07/30 05:15:09;;;;;;;10.95;4.80;;;;;;;22.28;66.49;94996.47;5013798;28;20033;-67
2022/07/30 05:17:36;;;;;;;5.38;4.68;;;;;;;22.42;66.34;94992.97;5018762;28;20045;-67
2022/07/30 05:20:08;;;;;;;7.72;4.32;;;;;;;22.51;65.01;94991.19;5026174;28;20033;-67
2022/07/30 05:22:53;;;;;;;5.75;4.20;;;;;;;22.56;65.04;94993.69;5015248;28;20060;-67
2022/07/30 05:25:21;;;;;;;5.13;4.63;;;;;;;22.67;63.96;95003.00;5013918;28;20072;-67
2022/07/30 05:27:51;;;;;;;5.97;4.78;;;;;;;22.77;63.87;94998.53;4996286;28;20140;-67
2022/07/30 05:30:18;;;;;;;10.98;4.03;;;;;;;22.84;63.04;94998.88;5005790;28;20049;-67
2022/07/30 05:32:53;;;;;;;5.68;4.43;;;;;;;22.98;63.32;95004.88;4992808;28;20045;-67
2022/07/30 05:35:21;;;;;;;7.07;4.55;;;;;;;23.08;62.49;94996.69;5005496;28;20529;-67
2022/07/30 05:37:49;;;;;;;6.80;4.80;;;;;;;23.20;62.24;94997.97;5005224;28;20144;-67
2022/07/30 05:40:17;;;;;;;7.07;4.32;;;;;;;23.35;62.45;95002.84;5009099;28;20937;-67
2022/07/30 05:43:20;;;;;;;10.95;4.35;;;;;;;23.36;60.34;94982.41;4980374;28;20049;-67
2022/07/30 05:45:46;;;;;;;6.65;4.63;;;;;;;23.58;61.27;95008.09;5005707;28;20088;-67
2022/07/30 05:48:13;;;;;;;5.20;4.53;;;;;;;23.76;59.88;95007.03;5003119;28;20042;-67
2022/07/30 05:50:40;;;;;;;8.00;4.53;;;;;;;23.85;58.71;95010.53;5004169;28;20052;-67
2022/07/30 05:53:07;;;;;;;7.60;4.53;;;;;;;23.94;57.81;95007.09;5020867;28;20079;-67
2022/07/30 05:56:00;;;;;;;7.57;4.10;;;;;;;23.98;56.87;95008.81;5017502;28;20080;-67
2022/07/30 05:58:56;;;;;;;4.78;4.07;;;;;;;24.07;58.14;95016.81;4954812;28;20073;-67
2022/07/30 06:01:43;;;;;;;8.45;4.20;;;;;;;24.21;57.48;95001.47;5022020;28;20064;-66
2022/07/30 06:04:16;;;;;;;;;;;;;;;24.32;55.91;95006.50;5007857;28;20038;-67
2022/07/30 06:06:47;;;;;;;6.03;4.40;;;;;;;24.42;55.91;95000.84;5009594;28;20212;-67
2022/07/30 06:09:14;;;;;;;4.82;4.10;;;;;;;24.48;55.20;94999.59;5010599;28;20573;-67
2022/07/30 06:11:41;;;;;;;9.63;4.75;;;;;;;24.61;55.63;95009.31;5021896;28;20064;-67
2022/07/30 06:14:08;;;;;;;5.90;4.45;;;;;;;24.76;54.22;95009.91;5016409;28;20041;-67
2022/07/30 06:16:36;;;;;;;5.80;5.05;;;;;;;24.83;53.90;95007.56;5030630;28;20048;-67
2022/07/30 06:19:03;;;;;;;4.95;4.45;;;;;;;24.94;53.13;95022.09;5009952;28;20045;-67
2022/07/30 06:21:42;;;;;;;4.45;4.05;;;;;;;25.06;52.46;95018.75;5026515;28;20053;-67
2022/07/30 06:24:29;;;;;;;5.07;4.40;;;;;;;25.24;52.27;95014.16;5033617;28;20048;-67
2022/07/30 06:27:03;;;;;;;7.47;4.35;;;;;;;25.44;52.00;95006.56;5035903;28;20579;-67
2022/07/30 06:29:30;;;;;;;5.80;4.10;;;;;;;25.54;50.86;95006.97;5034406;28;21989;-67
2022/07/30 06:31:57;;;;;;;8.27;4.63;;;;;;;25.70;51.85;94999.22;5038465;28;20079;-67
2022/07/30 06:34:24;;;;;;;7.45;4.35;;;;;;;25.84;52.44;94998.19;5043531;28;20551;-67
2022/07/30 06:36:52;;;;;;;7.53;6.75;;;;;;;26.03;50.42;95003.13;5037233;28;20048;-67
2022/07/30 06:39:20;;;;;;;6.07;4.30;;;;;;;26.18;49.48;95007.06;5039697;28;20049;-67
2022/07/30 06:42:07;;;;;;;5.10;4.40;;;;;;;26.10;48.36;95006.81;5052895;28;20044;-67
2022/07/30 06:45:00;;;;;;;6.32;4.78;;;;;;;26.14;48.87;95001.59;5044858;28;20044;-67
2022/07/30 06:47:42;;;;;;;9.30;7.07;;;;;;;26.37;48.61;95010.06;5034249;28;20049;-67
2022/07/30 06:50:09;;;;;;;6.53;4.65;;;;;;;26.55;48.74;95004.59;5046654;28;20052;-67
2022/07/30 06:52:37;;;;;;;9.30;4.63;;;;;;;26.73;48.33;95000.66;5033219;28;20052;-67
2022/07/30 06:55:04;;;;;;;20.63;5.68;;;;;;;26.80;47.81;95005.47;5035026;28;20074;-67
2022/07/30 06:57:38;;;;;;;5.93;4.63;;;;;;;26.96;47.06;95005.63;5047555;28;20040;-67
2022/07/30 07:00:19;;;;;;;7.35;5.35;;;;;;;26.95;46.29;95001.38;5036719;28;20053;-67
2022/07/30 07:02:46;;;;;;;8.52;5.72;;;;;;;27.01;46.85;95005.38;5033527;28;20050;-67
2022/07/30 07:05:16;;;;;;;8.43;7.07;;;;;;;26.91;47.08;95000.47;5053209;28;20051;-67
2022/07/30 07:07:47;;;;;;;10.50;4.28;;;;;;;27.11;47.29;95010.31;5050917;28;20059;-67
2022/07/30 07:10:27;;;;;;;5.32;4.30;;;;;;;27.30;47.92;95006.34;5051770;28;20052;-67
2022/07/30 07:13:05;;;;;;;7.18;4.72;;;;;;;27.45;44.99;95003.78;5051745;28;20053;-67
2022/07/30 07:15:34;;;;;;;8.30;5.10;;;;;;;27.64;46.44;94997.88;5035469;28;20051;-67
2022/07/30 07:18:07;;;;;;;14.60;11.88;;;;;;;27.67;45.11;94971.56;5032570;28;20061;-67
2022/07/30 07:20:37;;;;;;;5.82;4.60;;;;;;;28.00;45.34;95001.66;5042354;28;20524;-67
2022/07/30 07:23:06;;;;;;;7.85;4.18;;;;;;;28.09;42.94;94998.06;5037897;28;20140;-67
2022/07/30 07:25:39;;;;;;;5.22;4.50;;;;;;;28.15;42.99;94986.78;5033752;28;20431;-67
2022/07/30 07:28:07;;;;;;;10.65;4.82;;;;;;;28.25;43.17;94985.50;5015922;28;20048;-67
2022/07/30 07:30:40;;;;;;;11.27;4.85;;;;;;;28.23;42.50;94977.03;5026725;28;20604;-71
2022/07/30 07:33:07;;;;;;;6.88;4.53;;;;;;;28.34;42.84;94978.13;5045537;28;20860;-72
2022/07/30 07:35:34;;;;;;;5.57;3.83;;;;;;;28.40;42.87;94971.41;5031404;28;20041;-71
2022/07/30 07:38:20;;;;;;;5.10;4.60;;;;;;;28.52;43.12;94961.75;5031954;28;20137;-73
2022/07/30 07:40:52;;;;;;;5.60;5.00;;;;;;;28.64;41.95;94969.75;5028224;28;20110;-73
2022/07/30 07:43:19;;;;;;;9.77;4.40;;;;;;;28.78;41.44;94980.84;5018477;28;20132;-73
2022/07/30 07:45:46;;;;;;;6.82;4.50;;;;;;;28.94;42.09;94980.09;5041917;28;20114;-72
2022/07/30 07:48:13;;;;;;;5.97;3.85;;;;;;;29.07;42.00;94981.56;5030384;28;20103;-65
2022/07/30 07:50:54;;;;;;;10.13;4.82;;;;;;;29.21;40.80;94980.38;5027575;28;20056;-66
2022/07/30 07:53:28;;;;;;;5.65;4.28;;;;;;;29.39;39.97;94981.59;5017430;28;20041;-66
2022/07/30 07:55:55;;;;;;;8.73;5.00;;;;;;;29.50;40.17;94977.25;5026463;28;20048;-68
2022/07/30 07:58:24;;;;;;;5.43;3.83;;;;;;;29.54;40.06;94978.09;5032975;28;20049;-68
2022/07/30 08:00:53;;;;;;;5.75;4.10;;;;;;;29.53;40.86;94976.53;5042388;28;20037;-69
2022/07/30 08:03:25;;;;;;;6.00;4.13;;;;;;;29.71;40.96;94976.16;5019376;28;20045;-68
2022/07/30 08:06:03;;;;;;;9.20;4.25;;;;;;;29.77;38.78;94974.03;5019095;28;20245;-68
2022/07/30 08:08:46;;;;;;;10.77;4.47;;;;;;;29.93;38.40;94972.84;5021936;28;20045;-71
2022/07/30 08:11:48;;;;;;;6.25;4.93;;;;;;;30.18;38.29;94961.84;4961037;28;20061;-71
2022/07/30 08:14:34;;;;;;;8.38;4.72;;;;;;;30.42;38.28;94960.00;5024039;28;20488;-73
2022/07/30 08:17:40;;;;;;;5.85;4.28;;;;;;;30.58;37.57;94968.75;4981115;28;20069;-72
2022/07/30 08:20:17;;;;;;;9.10;4.93;;;;;;;30.66;37.04;94965.06;5031040;28;20052;-71
2022/07/30 08:22:47;;;;;;;4.45;4.05;;;;;;;30.60;36.87;94961.13;5041433;28;20053;-71
2022/07/30 08:25:15;;;;;;;7.28;4.38;;;;;;;30.75;37.37;94961.38;5027256;28;20126;-72
2022/07/30 08:27:50;;;;;;;8.32;4.40;;;;;;;30.85;36.92;94958.09;5040854;28;20059;-71
2022/07/30 08:30:19;;;;;;;7.40;4.30;;;;;;;30.93;36.24;94945.56;5028720;28;20049;-72
2022/07/30 08:32:46;;;;;;;5.03;4.53;;;;;;;31.02;36.85;94949.56;5030983;28;20051;-72
2022/07/30 08:35:13;;;;;;;4.53;4.13;;;;;;;31.15;35.46;94958.25;5029664;28;20036;-71
2022/07/30 08:37:41;;;;;;;6.35;4.20;;;;;;;31.19;36.12;94963.69;5032693;28;20433;-71
2022/07/30 08:40:08;;;;;;;5.93;3.83;;;;;;;31.32;35.60;94956.97;5026622;28;20780;-72
2022/07/30 08:42:45;;;;;;;4.95;4.30;;;;;;;31.47;36.25;94947.19;5023574;28;20053;-71
2022/07/30 08:45:13;;;;;;;7.78;4.35;;;;;;;31.74;34.94;94958.75;5035447;28;20037;-71
2022/07/30 08:47:44;;;;;;;7.93;3.80;;;;;;;32.00;34.57;94954.47;5048519;28;20036;-70
2022/07/30 08:50:20;;;;;;;7.32;3.78;;;;;;;32.18;34.78;94952.03;5023981;28;20055;-69
2022/07/30 08:53:06;;;;;;;6.65;4.88;;;;;;;32.34;33.32;94949.13;5026114;28;20056;-72
2022/07/30 08:55:34;;;;;;;8.25;4.68;;;;;;;32.51;34.10;94948.53;5029468;28;20262;-69
2022/07/30 08:58:02;;;;;;;8.65;3.63;;;;;;;32.74;31.86;94950.34;5050017;28;20149;-69
2022/07/30 09:00:30;;;;;;;5.30;4.38;;;;;;;32.72;33.05;94950.72;5046684;28;20041;-69
2022/07/30 09:02:58;;;;;;;5.00;4.00;;;;;;;32.84;32.39;94948.88;5028608;28;20045;-69
2022/07/30 09:05:25;;;;;;;7.20;4.35;;;;;;;32.86;32.09;94942.00;5040786;28;20037;-69
2022/07/30 09:07:52;;;;;;;8.50;4.75;;;;;;;32.97;31.96;94936.66;5012494;28;20751;-70
2022/07/30 09:10:23;;;;;;;9.35;4.72;;;;;;;33.10;32.41;94929.06;5026336;28;21253;-70
2022/07/30 09:12:50;;;;;;;6.53;3.97;;;;;;;33.33;30.84;94931.56;5028719;28;20078;-70
2022/07/30 09:15:19;;;;;;;12.32;3.63;;;;;;;33.08;30.06;94925.94;5045566;28;20045;-70
2022/07/30 09:17:49;;;;;;;7.68;4.65;;;;;;;33.19;30.76;94932.25;5034589;28;20041;-70
2022/07/30 09:20:26;;;;;;;3.90;3.50;;;;;;;33.31;31.64;94918.47;5012418;28;20053;-70
2022/07/30 09:22:55;;;;;;;5.15;3.65;;;;;;;33.48;31.06;94918.97;5008183;28;20050;-70
2022/07/30 09:25:47;;;;;;;6.40;3.38;;;;;;;33.65;30.71;94921.00;4989087;28;20053;-71
2022/07/30 09:28:33;;;;;;;33.30;24.92;;;;;;;33.88;31.18;94918.03;5018044;28;20557;-70
2022/07/30 09:31:12;;;;;;;8.73;6.20;;;;;;;33.70;29.67;94917.94;5030557;28;20045;-71
2022/07/30 09:33:58;;;;;;;29.42;16.02;;;;;;;33.91;30.09;94916.50;5037517;28;20133;-70
2022/07/30 09:36:43;;;;;;;7.18;5.65;;;;;;;33.55;31.36;94900.09;5045568;28;20178;-70
2022/07/30 09:39:37;;;;;;;5.10;3.80;;;;;;;33.92;31.17;94912.63;5029926;28;20057;-70
2022/07/30 09:42:21;;;;;;;6.22;3.70;;;;;;;34.14;29.80;94912.72;5036782;28;20056;-70
2022/07/30 09:44:51;;;;;;;5.28;4.78;;;;;;;34.35;30.22;94904.72;5020358;28;20067;-70
2022/07/30 09:47:32;;;;;;;6.43;3.85;;;;;;;34.61;29.07;94906.31;5028127;28;20140;-71
2022/07/30 09:50:05;;;;;;;4.25;3.55;;;;;;;34.73;28.53;94899.78;5029697;28;20056;-71
2022/07/30 09:52:33;;;;;;;4.20;3.80;;;;;;;34.96;29.94;94906.75;5048902;28;20604;-70
2022/07/30 09:55:00;;;;;;;5.93;5.18;;;;;;;35.07;28.33;94891.28;5049230;28;20091;-71
2022/07/30 09:57:29;;;;;;;10.55;7.13;;;;;;;35.08;28.14;94903.66;5018446;28;20168;-71
2022/07/30 10:00:18;;;;;;;4.57;4.18;;;;;;;34.97;27.41;94900.97;5024601;28;20037;-71
2022/07/30 10:03:24;;;;;;;5.05;3.85;;;;;;;35.16;28.83;94894.38;5023790;28;20146;-72
2022/07/30 10:06:34;;;;;;;4.65;4.15;;;;;;;35.38;28.06;94888.94;5029011;28;20048;-71
2022/07/30 10:09:27;;;;;;;4.03;3.63;;;;;;;35.58;28.34;94887.38;5021370;28;20041;-71
2022/07/30 10:12:01;;;;;;;8.57;4.07;;;;;;;35.86;27.63;94891.16;5028847;28;20057;-72
2022/07/30 10:14:36;;;;;;;13.57;7.10;;;;;;;35.58;27.54;94887.38;5033956;28;20041;-66
2022/07/30 10:17:11;;;;;;;196.10;113.05;;;;;;;35.95;27.09;94888.81;5021503;28;20530;-66
2022/07/30 10:19:40;;;;;;;375.45;197.77;;;;;;;35.87;26.58;94870.25;5028738;28;20075;-73
2022/07/30 10:22:27;;;;;;;994.42;511.60;;;;;;;36.16;25.81;94870.91;5040776;28;20060;-73
2022/07/30 10:25:04;;;;;;;484.02;227.35;;;;;;;36.32;27.20;94875.88;5033539;28;20041;-68
2022/07/30 10:27:50;;;;;;;8.23;6.68;;;;;;;36.17;25.97;94875.16;5041897;28;20414;-67
2022/07/30 10:30:27;;;;;;;4.95;4.28;;;;;;;36.23;26.53;94859.25;5032045;28;20045;-68
2022/07/30 10:32:57;;;;;;;4.78;4.25;;;;;;;36.48;25.81;94864.53;5031891;28;20126;-68
2022/07/30 10:35:25;;;;;;;6.40;3.97;;;;;;;36.07;25.11;94859.69;5037751;28;20049;-67
2022/07/30 10:38:09;;;;;;;5.03;4.18;;;;;;;35.84;26.58;94844.72;5041785;28;20548;-67
2022/07/30 10:40:47;;;;;;;5.00;3.95;;;;;;;36.28;26.04;94846.06;5045937;28;20430;-67
2022/07/30 10:43:36;;;;;;;6.18;4.57;;;;;;;36.55;25.31;94849.00;5048675;28;20131;-67
2022/07/30 10:46:12;;;;;;;4.60;4.10;;;;;;;36.58;24.54;94850.13;5037034;28;20585;-77
2022/07/30 10:48:49;;;;;;;4.85;4.20;;;;;;;36.52;25.21;94849.03;5006667;28;20045;-68
2022/07/30 10:51:17;;;;;;;6.32;4.72;;;;;;;36.79;23.98;94840.31;5039351;28;20101;-68
2022/07/30 10:53:51;;;;;;;4.80;4.18;;;;;;;36.65;24.34;94836.53;5038795;28;20049;-70
2022/07/30 10:56:21;;;;;;;5.50;5.00;;;;;;;36.79;25.15;94834.88;5039503;28;20525;-70
2022/07/30 10:59:04;;;;;;;5.05;4.45;;;;;;;36.98;24.74;94837.03;5044429;28;20040;-70
2022/07/30 11:02:07;;;;;;;5.40;3.92;;;;;;;36.93;24.62;94842.91;5023922;28;20049;-72
2022/07/30 11:04:36;;;;;;;5.35;4.85;;;;;;;37.02;23.91;94826.91;4997565;28;20042;-72
2022/07/30 11:07:21;;;;;;;7.95;4.63;;;;;;;37.31;23.89;94832.09;5020252;28;20102;-73
2022/07/30 11:09:54;;;;;;;4.65;4.25;;;;;;;36.72;24.68;94831.06;5040188;28;20554;-73
2022/07/30 11:12:44;;;;;;;6.57;4.47;;;;;;;36.98;24.31;94831.59;5037102;28;20048;-73
2022/07/30 11:15:12;;;;;;;5.68;4.60;;;;;;;37.12;24.07;94814.44;5046230;28;20175;-73
2022/07/30 11:17:57;;;;;;;6.35;4.28;;;;;;;36.82;23.53;94823.22;5026707;28;20045;-73
2022/07/30 11:20:24;;;;;;;5.88;4.03;;;;;;;37.45;24.18;94804.78;5046614;28;20049;-73
2022/07/30 11:22:52;;;;;;;6.25;4.13;;;;;;;38.08;23.58;94811.78;5048706;28;20084;-71
2022/07/30 11:25:26;;;;;;;5.30;3.90;;;;;;;38.50;22.41;94808.84;5031341;28;20048;-71
2022/07/30 11:28:45;;;;;;;6.65;3.65;;;;;;;38.67;22.45;94801.63;5026266;28;20041;-71
2022/07/30 11:31:31;;;;;;;4.93;4.07;;;;;;;38.79;22.99;94803.75;5041259;28;20045;-71
2022/07/30 11:34:18;;;;;;;7.57;4.10;;;;;;;39.07;22.76;94796.28;5043683;28;20049;-71
2022/07/30 11:37:04;;;;;;;3.80;3.47;;;;;;;39.24;22.38;94800.66;5039973;28;20127;-71
2022/07/30 11:39:54;;;;;;;4.15;3.75;;;;;;;39.33;21.53;94792.69;5025041;28;20049;-71
2022/07/30 11:42:24;;;;;;;;;;;;;;;39.56;21.31;94799.28;5043688;28;20036;-71
2022/07/30 11:44:52;;;;;;;4.50;3.47;;;;;;;39.72;20.56;94802.03;5026726;28;19931;-71
2022/07/30 11:47:19;;;;;;;4.95;3.70;;;;;;;40.09;20.34;94786.50;5040833;28;20055;-72
2022/07/30 11:49:46;;;;;;;7.10;3.55;;;;;;;40.37;20.11;94794.47;5040459;28;20546;-71
2022/07/30 11:52:22;;;;;;;3.58;3.20;;;;;;;40.41;19.55;94787.75;5031549;28;20048;-72
2022/07/30 11:54:53;;;;;;;4.15;3.75;;;;;;;40.15;20.71;94781.28;5033702;28;20042;-73
2022/07/30 11:57:37;;;;;;;6.60;3.58;;;;;;;40.22;20.08;94766.75;5031616;28;20037;-71
2022/07/30 12:00:05;;;;;;;6.57;3.38;;;;;;;40.47;20.09;94775.13;5005677;28;20045;-71
2022/07/30 12:02:40;;;;;;;7.85;3.80;;;;;;;40.17;20.48;94769.97;5029708;28;20055;-71